Time;durP1;ratioP1;P1;durP2;ratioP2;P2;SDS_P1;SDS_P2;PMS_P1;PMS_P2;Temp;Humidity;BMP_temperature;BMP_pressure;BME280_temperature;BME280_humidity;BME280_pressure;Samples;Min_cycle;Max_cycle;Signal;HPM_P1;HPM_P2
2023/01/02 00:00:41;;;;;;;;;;;5.10;99.90;;;;;;5025685;28;20542;-80
2023/01/02 00:03:07;;;;;;;;;;;5.10;99.90;;;;;;5027021;28;19905;-80
2023/01/02 00:05:33;;;;;;;;;;;4.90;99.90;;;;;;5027744;28;19936;-79
2023/01/02 00:07:59;;;;;;;;;;;2.10;99.90;;;;;;5029843;28;20505;-81
2023/01/02 00:10:25;;;;;;;;;;;5.00;99.90;;;;;;5030552;28;20017;-79
2023/01/02 00:12:50;;;;;;;;;;;4.60;99.90;;;;;;5034948;28;19909;-79
2023/01/02 00:15:16;;;;;;;;;;;5.10;99.90;;;;;;5052198;28;19959;-82
2023/01/02 00:17:42;;;;;;;;;;;5.50;99.90;;;;;;5031227;28;19932;-82
2023/01/02 00:20:08;;;;;;;;;;;5.00;99.90;;;;;;5037637;28;19909;-80
2023/01/02 00:22:36;;;;;;;;;;;5.00;99.90;;;;;;5028138;28;20413;-79
2023/01/02 00:25:02;;;;;;;;;;;5.00;99.90;;;;;;5030240;28;19916;-79
2023/01/02 00:27:27;;;;;;;;;;;5.00;99.90;;;;;;5048215;28;19913;-79
2023/01/02 00:29:53;;;;;;;;;;;5.00;99.90;;;;;;5055224;28;19909;-79
2023/01/02 00:32:19;;;;;;;;;;;5.10;99.90;;;;;;5038391;28;19916;-81
2023/01/02 00:34:44;;;;;;;;;;;5.10;99.90;;;;;;5037936;28;19944;-79
2023/01/02 00:37:10;;;;;;;;;;;5.10;99.90;;;;;;5036013;28;19928;-79
2023/01/02 00:39:35;;;;;;;;;;;4.90;99.90;;;;;;5047828;28;19921;-79
2023/01/02 00:42:01;;;;;;;;;;;5.40;99.90;;;;;;5031593;28;19979;-78
2023/01/02 00:44:27;;;;;;;;;;;5.00;99.90;;;;;;5051325;28;19916;-79
2023/01/02 00:46:52;;;;;;;;;;;4.80;99.90;;;;;;5034907;28;19967;-80
2023/01/02 00:49:18;;;;;;;;;;;4.80;99.90;;;;;;5044908;28;19935;-80
2023/01/02 00:51:43;;;;;;;;;;;4.60;99.90;;;;;;5027410;28;19942;-80
2023/01/02 00:54:09;;;;;;;;;;;4.70;99.90;;;;;;5025706;28;19910;-78
2023/01/02 00:56:36;;;;;;;;;;;4.70;99.90;;;;;;5026535;28;19913;-78
2023/01/02 00:59:01;;;;;;;;;;;4.80;99.90;;;;;;5026921;28;19966;-80
2023/01/02 01:01:27;;;;;;;;;;;4.70;99.90;;;;;;5027777;28;19905;-79
2023/01/02 01:03:53;;;;;;;;;;;4.70;99.90;;;;;;5027647;28;20614;-80
2023/01/02 01:06:20;;;;;;;;;;;4.70;99.90;;;;;;5027041;28;19959;-79
2023/01/02 01:08:47;;;;;;;;;;;4.60;99.90;;;;;;5026043;28;19905;-80
2023/01/02 01:11:13;;;;;;;;;;;4.60;99.90;;;;;;5026674;28;19932;-80
2023/01/02 01:13:39;;;;;;;;;;;4.60;99.90;;;;;;5026474;28;20036;-79
2023/01/02 01:16:09;;;;;;;;;;;4.50;99.90;;;;;;5027346;28;20570;-80
2023/01/02 01:18:35;;;;;;;;;;;4.50;99.90;;;;;;5027262;28;19952;-80
2023/01/02 01:21:06;;;;;;;;;;;4.40;99.90;;;;;;5028386;28;19984;-78
2023/01/02 01:23:33;;;;;;;;;;;4.40;99.90;;;;;;5024037;28;19905;-80
2023/01/02 01:26:01;;;;;;;;;;;4.30;99.90;;;;;;5027597;28;19913;-79
2023/01/02 01:28:27;;;;;;;;;;;4.40;99.90;;;;;;5026596;28;19960;-79
2023/01/02 01:30:52;;;;;;;;;;;4.40;99.90;;;;;;5025748;28;19909;-79
2023/01/02 01:33:18;;;;;;;;;;;4.50;99.90;;;;;;5023429;28;20047;-79
2023/01/02 01:35:45;;;;;;;;;;;4.50;99.90;;;;;;5025610;28;20063;-79
2023/01/02 01:38:10;;;;;;;;;;;4.50;99.90;;;;;;5025819;28;19914;-79
2023/01/02 01:40:37;;;;;;;;;;;1.90;99.90;;;;;;5005970;28;19951;-79
2023/01/02 01:43:19;;;;;;;;;;;4.60;99.90;;;;;;5022633;28;19916;-79
2023/01/02 01:45:46;;;;;;;;;;;4.50;99.90;;;;;;5023418;28;19971;-78
2023/01/02 01:48:13;;;;;;;;;;;4.90;99.90;;;;;;5024738;28;20005;-78
2023/01/02 01:50:40;;;;;;;;;;;4.50;99.90;;;;;;5025726;28;19916;-78
2023/01/02 01:53:05;;;;;;;;;;;4.40;99.90;;;;;;5024811;28;20526;-78
2023/01/02 01:55:46;;;;;;;;;;;4.40;99.90;;;;;;5022260;28;19914;-78
2023/01/02 01:58:21;;;;;;;;;;;4.30;99.90;;;;;;5021695;28;20532;-78
2023/01/02 02:00:47;;;;;;;;;;;4.30;99.90;;;;;;5023271;28;20614;-79
2023/01/02 02:03:15;;;;;;;;;;;4.20;99.90;;;;;;5023259;28;19909;-79
2023/01/02 02:05:41;;;;;;;;;;;4.20;99.90;;;;;;5029673;28;19939;-78
2023/01/02 02:08:14;;;;;;;;;;;5.40;99.90;;;;;;5032543;28;19913;-79
2023/01/02 02:10:40;;;;;;;;;;;4.20;99.90;;;;;;5029931;28;19959;-79
2023/01/02 02:13:06;;;;;;;;;;;4.70;99.90;;;;;;5028497;28;20012;-80
2023/01/02 02:15:46;;;;;;;;;;;4.20;99.90;;;;;;5029865;28;20530;-80
2023/01/02 02:18:25;;;;;;;;;;;3.20;99.90;;;;;;5028614;28;19921;-79
2023/01/02 02:20:59;;;;;;;;;;;4.20;99.90;;;;;;5027513;28;19909;-79
2023/01/02 02:23:31;;;;;;;;;;;4.20;99.90;;;;;;5024948;28;20007;-83
2023/01/02 02:25:57;;;;;;;;;;;4.30;99.90;;;;;;5026721;28;19905;-81
2023/01/02 02:28:59;;;;;;;;;;;4.70;99.90;;;;;;5027104;28;19913;-78
2023/01/02 02:31:25;;;;;;;;;;;4.20;99.90;;;;;;4967768;28;19992;-79
2023/01/02 02:34:09;;;;;;;;;;;4.30;99.90;;;;;;4951681;28;19985;-79
2023/01/02 02:36:46;;;;;;;;;;;4.20;99.90;;;;;;4965317;28;19910;-79
2023/01/02 02:39:21;;;;;;;;;;;4.50;99.90;;;;;;4966606;28;19922;-78
2023/01/02 02:42:05;;;;;;;;;;;4.30;99.90;;;;;;4954877;28;19914;-79
2023/01/02 02:44:53;;;;;;;;;;;4.30;99.90;;;;;;4966599;28;19910;-79
2023/01/02 02:47:31;;;;;;;;;;;4.30;99.90;;;;;;4889242;29;19931;-78
2023/01/02 02:50:18;;;;;;;;;;;4.40;99.90;;;;;;4874016;29;19914;-78
2023/01/02 02:52:46;;;;;;;;;;;4.70;99.90;;;;;;4875691;29;20554;-79
2023/01/02 02:55:28;;;;;;;;;;;4.30;99.90;;;;;;4889948;29;19920;-79
2023/01/02 02:57:55;;;;;;;;;;;4.50;99.90;;;;;;4889923;29;20526;-79
2023/01/02 03:00:23;;;;;;;;;;;4.50;99.90;;;;;;4875489;29;20227;-79
2023/01/02 03:02:49;;;;;;;;;;;4.40;99.90;;;;;;4871972;29;19997;-78
2023/01/02 03:05:20;;;;;;;;;;;4.40;99.90;;;;;;4898994;29;20786;-78
2023/01/02 03:08:18;;;;;;;;;;;4.50;99.90;;;;;;4930964;28;19915;-79
2023/01/02 03:10:44;;;;;;;;;;;2.80;99.90;;;;;;4946676;28;19958;-79
2023/01/02 03:13:16;;;;;;;;;;;4.30;99.90;;;;;;4947691;28;19979;-81
2023/01/02 03:16:14;;;;;;;;;;;4.30;99.90;;;;;;4948202;28;20574;-79
2023/01/02 03:18:44;;;;;;;;;;;4.30;99.90;;;;;;4909454;29;20004;-80
2023/01/02 03:21:11;;;;;;;;;;;4.30;99.90;;;;;;4910542;28;19913;-79
2023/01/02 03:23:47;;;;;;;;;;;4.30;99.90;;;;;;4917028;29;19940;-78
2023/01/02 03:26:14;;;;;;;;;;;4.30;99.90;;;;;;4931589;28;19960;-79
2023/01/02 03:28:41;;;;;;;;;;;4.30;99.90;;;;;;4948273;28;20002;-78
2023/01/02 03:31:10;;;;;;;;;;;4.30;99.90;;;;;;4948356;28;20553;-78
2023/01/02 03:33:48;;;;;;;;;;;4.30;99.90;;;;;;4931942;29;19992;-79
2023/01/02 03:36:16;;;;;;;;;;;4.30;99.90;;;;;;4948933;28;20093;-78
2023/01/02 03:38:48;;;;;;;;;;;4.20;99.90;;;;;;4931781;29;20056;-79
2023/01/02 03:41:17;;;;;;;;;;;4.20;99.90;;;;;;4950334;29;19917;-78
2023/01/02 03:43:44;;;;;;;;;;;4.20;99.90;;;;;;4948044;28;20434;-78
2023/01/02 03:46:28;;;;;;;;;;;4.20;99.90;;;;;;4962347;28;19910;-79
2023/01/02 03:49:11;;;;;;;;;;;4.10;99.90;;;;;;4973975;28;19999;-79
2023/01/02 03:51:36;;;;;;;;;;;4.10;99.90;;;;;;4975565;28;19977;-79
2023/01/02 03:54:03;;;;;;;;;;;4.10;99.90;;;;;;4986455;28;19909;-79
2023/01/02 03:56:48;;;;;;;;;;;4.10;99.90;;;;;;5030813;28;19909;-79
2023/01/02 03:59:33;;;;;;;;;;;3.00;99.90;;;;;;5033694;28;19920;-79
2023/01/02 04:02:01;;;;;;;;;;;3.10;99.90;;;;;;5036998;28;19996;-79
2023/01/02 04:04:34;;;;;;;;;;;4.10;99.90;;;;;;5029720;28;19999;-79
2023/01/02 04:07:01;;;;;;;;;;;4.10;99.90;;;;;;5029404;28;19963;-78
2023/01/02 04:09:28;;;;;;;;;;;4.00;99.90;;;;;;5028371;28;19909;-79
2023/01/02 04:11:57;;;;;;;;;;;3.30;99.90;;;;;;5031875;28;19909;-82
2023/01/02 04:14:31;;;;;;;;;;;4.00;99.90;;;;;;5032138;28;19912;-79
2023/01/02 04:16:58;;;;;;;;;;;4.00;99.90;;;;;;5030308;28;19921;-80
2023/01/02 04:19:53;;;;;;;;;;;4.00;99.90;;;;;;5030886;28;20000;-79
2023/01/02 04:22:22;;;;;;;;;;;3.60;99.90;;;;;;4966435;28;19929;-79
2023/01/02 04:24:52;;;;;;;;;;;3.90;99.90;;;;;;4960478;28;20001;-79
2023/01/02 04:27:22;;;;;;;;;;;3.90;99.90;;;;;;4967402;28;20013;-77
2023/01/02 04:29:47;;;;;;;;;;;3.90;99.90;;;;;;4971049;28;19906;-78
2023/01/02 04:32:15;;;;;;;;;;;3.90;99.90;;;;;;4970178;28;19961;-78
2023/01/02 04:34:44;;;;;;;;;;;3.90;99.90;;;;;;4964391;28;19977;-78
2023/01/02 04:37:33;;;;;;;;;;;3.90;99.90;;;;;;4947492;28;19914;-78
2023/01/02 04:40:07;;;;;;;;;;;3.80;99.90;;;;;;4963046;28;19996;-79
2023/01/02 04:42:35;;;;;;;;;;;3.80;99.90;;;;;;4963028;28;19914;-80
2023/01/02 04:45:01;;;;;;;;;;;4.20;99.90;;;;;;4962887;28;19944;-79
2023/01/02 04:47:26;;;;;;;;;;;3.80;99.90;;;;;;4962533;28;20587;-79
2023/01/02 04:49:55;;;;;;;;;;;4.00;99.90;;;;;;4962174;28;20692;-80
2023/01/02 04:52:20;;;;;;;;;;;3.80;99.90;;;;;;4945750;28;19914;-81
2023/01/02 04:54:46;;;;;;;;;;;3.80;99.90;;;;;;4961210;28;20032;-80
2023/01/02 04:57:11;;;;;;;;;;;3.70;99.90;;;;;;4945632;28;19990;-78
2023/01/02 04:59:37;;;;;;;;;;;3.70;99.90;;;;;;5010923;28;20108;-79
2023/01/02 05:02:03;;;;;;;;;;;3.60;99.90;;;;;;5023803;28;19909;-79
2023/01/02 05:04:28;;;;;;;;;;;3.60;99.90;;;;;;5023725;28;19909;-78
2023/01/02 05:06:54;;;;;;;;;;;3.50;99.90;;;;;;5024007;28;20041;-79
2023/01/02 05:09:20;;;;;;;;;;;3.60;99.90;;;;;;5023489;28;19968;-78
2023/01/02 05:11:46;;;;;;;;;;;3.60;99.90;;;;;;5022222;28;19912;-79
2023/01/02 05:14:12;;;;;;;;;;;3.60;99.90;;;;;;5023784;28;19948;-81
2023/01/02 05:16:38;;;;;;;;;;;3.60;99.90;;;;;;5039546;28;19924;-78
2023/01/02 05:19:03;;;;;;;;;;;4.00;99.90;;;;;;5023566;28;19924;-76
2023/01/02 05:24:13;;;;;;;;;;;3.50;99.90;;;;;;5023924;28;19962;-78
2023/01/02 05:26:39;;;;;;;;;;;3.50;99.90;;;;;;5024413;28;20012;-79
2023/01/02 05:29:04;;;;;;;;;;;3.50;99.90;;;;;;5023824;28;19905;-78
2023/01/02 05:31:31;;;;;;;;;;;3.40;99.90;;;;;;5028187;28;19940;-79
2023/01/02 05:33:57;;;;;;;;;;;3.50;99.90;;;;;;5026763;28;19913;-80
2023/01/02 05:36:23;;;;;;;;;;;3.50;99.90;;;;;;5029548;28;19917;-80
2023/01/02 05:38:51;;;;;;;;;;;3.50;99.90;;;;;;5029859;28;19963;-79
2023/01/02 05:41:17;;;;;;;;;;;3.50;99.90;;;;;;5031814;28;19909;-79
2023/01/02 05:43:42;;;;;;;;;;;3.50;99.90;;;;;;5032410;28;20465;-78
2023/01/02 05:46:10;;;;;;;;;;;3.50;99.90;;;;;;5031625;28;19955;-78
2023/01/02 05:48:36;;;;;;;;;;;3.50;99.90;;;;;;5033559;28;19963;-79
2023/01/02 05:51:05;;;;;;;;;;;3.50;99.90;;;;;;5032609;28;19921;-79
2023/01/02 05:53:31;;;;;;;;;;;3.40;99.90;;;;;;5029709;28;19909;-79
2023/01/02 05:56:04;;;;;;;;;;;3.40;99.90;;;;;;5046061;28;20132;-78
2023/01/02 05:58:31;;;;;;;;;;;3.60;99.90;;;;;;5028794;28;20034;-79
2023/01/02 06:01:01;;;;;;;;;;;1.10;99.90;;;;;;5030670;28;19913;-78
2023/01/02 06:03:27;;;;;;;;;;;3.70;99.90;;;;;;5033145;28;19913;-78
2023/01/02 06:05:53;;;;;;;;;;;3.70;99.90;;;;;;5049833;28;19912;-79
2023/01/02 06:08:18;;;;;;;;;;;3.60;99.90;;;;;;5034594;28;19917;-79
2023/01/02 06:10:51;;;;;;;;;;;3.70;99.90;;;;;;5033807;28;20000;-81
2023/01/02 06:13:17;;;;;;;;;;;3.60;99.90;;;;;;5032757;28;20000;-77
2023/01/02 06:15:42;;;;;;;;;;;1.90;99.90;;;;;;5032545;28;19909;-79
2023/01/02 06:18:14;;;;;;;;;;;3.60;99.90;;;;;;5033680;28;19921;-79
2023/01/02 06:20:40;;;;;;;;;;;3.50;99.90;;;;;;5032600;28;20593;-77
2023/01/02 06:23:05;;;;;;;;;;;3.60;99.90;;;;;;5033164;28;20465;-78
2023/01/02 06:25:32;;;;;;;;;;;3.60;99.90;;;;;;5047759;28;19905;-79
2023/01/02 06:27:57;;;;;;;;;;;3.60;99.90;;;;;;5031527;28;20282;-79
2023/01/02 06:30:23;;;;;;;;;;;3.60;99.90;;;;;;5032319;28;19920;-79
2023/01/02 06:32:49;;;;;;;;;;;3.60;99.90;;;;;;5032665;28;19971;-77
2023/01/02 06:35:15;;;;;;;;;;;3.60;99.90;;;;;;5047697;28;19913;-78
2023/01/02 06:37:44;;;;;;;;;;;3.60;99.90;;;;;;5033314;28;20581;-78
2023/01/02 06:40:10;;;;;;;;;;;3.60;99.90;;;;;;5031621;28;19988;-79
2023/01/02 06:42:35;;;;;;;;;;;3.50;99.90;;;;;;5032591;28;19967;-79
2023/01/02 06:45:01;;;;;;;;;;;3.50;99.90;;;;;;5032223;28;20202;-80
2023/01/02 06:47:27;;;;;;;;;;;3.60;99.90;;;;;;5032405;28;20517;-78
2023/01/02 06:49:52;;;;;;;;;;;3.60;99.90;;;;;;5014336;28;19944;-78
2023/01/02 06:52:18;;;;;;;;;;;3.60;99.90;;;;;;5031776;28;19913;-78
2023/01/02 06:54:44;;;;;;;;;;;3.60;99.90;;;;;;5030235;28;19920;-79
2023/01/02 06:57:09;;;;;;;;;;;3.50;99.90;;;;;;5033518;28;20562;-79
2023/01/02 06:59:35;;;;;;;;;;;5.30;99.90;;;;;;5052569;28;19921;-79
2023/01/02 07:02:01;;;;;;;;;;;3.50;99.90;;;;;;5034755;28;20605;-78
2023/01/02 07:04:27;;;;;;;;;;;3.60;99.90;;;;;;5037507;28;20171;-79
2023/01/02 07:06:52;;;;;;;;;;;3.70;99.90;;;;;;5038241;28;19956;-80
2023/01/02 07:09:20;;;;;;;;;;;3.60;99.90;;;;;;5040840;28;19914;-79
2023/01/02 07:11:45;;;;;;;;;;;1.50;99.90;;;;;;5046261;28;19937;-78
2023/01/02 07:14:11;;;;;;;;;;;3.60;99.90;;;;;;5034460;28;19909;-78
2023/01/02 07:16:36;;;;;;;;;;;3.10;99.90;;;;;;5037952;28;20425;-80
2023/01/02 07:19:04;;;;;;;;;;;3.70;99.90;;;;;;5041439;28;19984;-83
2023/01/02 07:21:30;;;;;;;;;;;3.80;99.90;;;;;;5035438;28;20451;-77
2023/01/02 07:23:55;;;;;;;;;;;3.80;99.90;;;;;;5035013;28;20555;-81
2023/01/02 07:26:21;;;;;;;;;;;3.90;99.90;;;;;;5035696;28;20015;-80
2023/01/02 07:28:47;;;;;;;;;;;3.90;99.90;;;;;;5030181;28;19909;-79
2023/01/02 07:31:15;;;;;;;;;;;3.90;99.90;;;;;;5028936;28;19932;-80
2023/01/02 07:33:40;;;;;;;;;;;3.90;99.90;;;;;;5032949;28;19909;-76
2023/01/02 07:36:10;;;;;;;;;;;3.90;99.90;;;;;;5033796;28;19909;-80
2023/01/02 07:38:37;;;;;;;;;;;3.90;99.90;;;;;;5033514;28;19921;-78
2023/01/02 07:41:04;;;;;;;;;;;4.10;99.90;;;;;;5035700;28;20314;-79
2023/01/02 07:43:29;;;;;;;;;;;4.10;99.90;;;;;;5038828;28;20078;-78
2023/01/02 07:46:02;;;;;;;;;;;5.80;99.90;;;;;;5038818;28;20444;-79
2023/01/02 07:48:29;;;;;;;;;;;2.20;99.90;;;;;;5041501;28;19909;-78
2023/01/02 07:51:00;;;;;;;;;;;4.30;99.90;;;;;;5037233;28;19964;-78
2023/01/02 07:53:26;;;;;;;;;;;4.30;99.90;;;;;;5036671;28;19909;-81
2023/01/02 07:55:56;;;;;;;;;;;4.40;99.90;;;;;;5033728;28;20383;-79
2023/01/02 07:58:21;;;;;;;;;;;4.40;99.90;;;;;;5029263;28;20554;-79
2023/01/02 08:00:47;;;;;;;;;;;4.40;99.90;;;;;;5030671;28;19948;-78
2023/01/02 08:03:13;;;;;;;;;;;4.40;99.90;;;;;;5031756;28;20005;-78
2023/01/02 08:05:38;;;;;;;;;;;4.40;99.90;;;;;;5031094;28;19909;-79
2023/01/02 08:08:04;;;;;;;;;;;4.50;99.90;;;;;;5030761;28;19909;-78
2023/01/02 08:10:29;;;;;;;;;;;4.70;99.90;;;;;;5033317;28;20105;-77
2023/01/02 08:12:56;;;;;;;;;;;4.60;99.90;;;;;;5036357;28;19988;-78
2023/01/02 08:15:22;;;;;;;;;;;4.70;99.90;;;;;;5036147;28;20011;-77
2023/01/02 08:17:47;;;;;;;;;;;2.40;99.90;;;;;;5033623;28;19928;-77
2023/01/02 08:20:13;;;;;;;;;;;5.30;99.90;;;;;;5032435;28;19921;-78
2023/01/02 08:22:39;;;;;;;;;;;4.90;99.90;;;;;;5031827;28;19909;-77
2023/01/02 08:25:05;;;;;;;;;;;5.00;99.90;;;;;;5034798;28;20352;-78
2023/01/02 08:27:30;;;;;;;;;;;8.00;99.90;;;;;;5029374;28;19913;-80
2023/01/02 08:29:58;;;;;;;;;;;5.10;99.90;;;;;;5028703;28;20590;-78
2023/01/02 08:32:24;;;;;;;;;;;4.50;99.90;;;;;;5028159;28;19921;-78
2023/01/02 08:34:49;;;;;;;;;;;5.60;99.90;;;;;;5029555;28;19940;-77
2023/01/02 08:37:15;;;;;;;;;;;5.60;99.90;;;;;;5029972;28;20579;-77
2023/01/02 08:39:40;;;;;;;;;;;4.70;99.90;;;;;;5030114;28;19916;-79
2023/01/02 08:42:06;;;;;;;;;;;5.70;99.90;;;;;;5028347;28;19953;-79
2023/01/02 08:44:33;;;;;;;;;;;5.70;99.90;;;;;;5026934;28;19915;-77
2023/01/02 08:46:58;;;;;;;;;;;5.80;99.90;;;;;;5027625;28;20598;-75
2023/01/02 08:49:24;;;;;;;;;;;5.80;99.90;;;;;;5028834;28;19905;-79
2023/01/02 08:51:50;;;;;;;;;;;5.90;99.90;;;;;;5029449;28;19971;-79
2023/01/02 08:54:21;;;;;;;;;;;4.50;99.90;;;;;;5031074;28;19969;-78
2023/01/02 08:56:51;;;;;;;;;;;5.90;99.90;;;;;;5027267;28;19948;-78
2023/01/02 08:59:17;;;;;;;;;;;6.00;99.90;;;;;;5028191;28;20513;-78
2023/01/02 09:01:42;;;;;;;;;;;6.10;99.90;;;;;;5026846;28;19913;-81
2023/01/02 09:04:11;;;;;;;;;;;6.20;99.90;;;;;;5029455;28;20559;-79
2023/01/02 09:06:36;;;;;;;;;;;6.20;99.90;;;;;;5028385;28;19980;-78
2023/01/02 09:09:13;;;;;;;;;;;6.40;99.90;;;;;;5025255;28;20559;-78
2023/01/02 09:11:51;;;;;;;;;;;6.40;99.90;;;;;;5023408;28;19913;-77
2023/01/02 09:14:18;;;;;;;;;;;6.60;99.90;;;;;;5023149;28;20525;-79
2023/01/02 09:17:00;;;;;;;;;;;;;;;;;;;;;
2023/01/02 09:19:26;;;;;;;;;;;6.80;99.90;;;;;;5021743;28;19913;-78
2023/01/02 09:21:52;;;;;;;;;;;6.90;99.90;;;;;;5020513;28;20004;-79
2023/01/02 09:24:43;;;;;;;;;;;7.00;99.90;;;;;;5019892;28;19991;-79
2023/01/02 09:27:11;;;;;;;;;;;7.20;99.90;;;;;;5020853;28;20008;-78
2023/01/02 09:29:37;;;;;;;;;;;7.20;99.90;;;;;;5021315;28;20505;-83
2023/01/02 09:32:08;;;;;;;;;;;9.60;99.90;;;;;;5022809;28;19917;-78
2023/01/02 09:34:34;;;;;;;;;;;7.40;99.90;;;;;;5021958;28;20046;-80
2023/01/02 09:37:01;;;;;;;;;;;8.00;99.90;;;;;;5021024;28;20498;-78
2023/01/02 09:39:27;;;;;;;;;;;6.60;99.90;;;;;;5022294;28;19955;-80
2023/01/02 09:41:56;;;;;;;;;;;7.80;99.90;;;;;;5024353;28;19913;-80
2023/01/02 09:44:25;;;;;;;;;;;7.70;99.90;;;;;;5021342;28;19909;-79
2023/01/02 09:47:03;;;;;;;;;;;7.80;99.90;;;;;;5020807;28;20000;-79
2023/01/02 09:49:33;;;;;;;;;;;8.00;99.90;;;;;;5022311;28;20004;-80
2023/01/02 09:51:59;;;;;;;;;;;8.10;99.90;;;;;;5020138;28;19909;-79
2023/01/02 09:54:28;;;;;;;;;;;8.20;99.90;;;;;;5022346;28;19905;-79
2023/01/02 09:57:13;;;;;;;;;;;8.30;99.90;;;;;;5023641;28;19913;-80
2023/01/02 09:59:45;;;;;;;;;;;8.40;99.90;;;;;;5023085;28;19909;-78
2023/01/02 10:02:37;;;;;;;;;;;8.50;99.90;;;;;;5023721;28;19921;-80
2023/01/02 10:05:21;;;;;;;;;;;8.60;99.90;;;;;;5024313;28;19944;-79
2023/01/02 10:07:55;;;;;;;;;;;8.60;99.90;;;;;;5024452;28;20008;-80
2023/01/02 10:10:24;;;;;;;;;;;8.70;99.90;;;;;;5021516;28;19916;-80
2023/01/02 10:13:05;;;;;;;;;;;8.80;99.90;;;;;;5040930;28;19931;-79
2023/01/02 10:15:31;;;;;;;;;;;8.80;99.90;;;;;;5041175;28;19905;-79
2023/01/02 10:17:58;;;;;;;;;;;8.80;99.90;;;;;;5041864;28;20315;-79
2023/01/02 10:20:27;;;;;;;;;;;8.90;99.90;;;;;;5042509;28;19914;-78
2023/01/02 10:22:55;;;;;;;;;;;7.70;99.90;;;;;;5029887;28;20104;-79
2023/01/02 10:25:33;;;;;;;;;;;9.20;99.90;;;;;;5032880;28;19925;-79
2023/01/02 10:27:58;;;;;;;;;;;8.00;99.90;;;;;;5036121;28;19912;-78
2023/01/02 10:30:26;;;;;;;;;;;10.40;99.90;;;;;;5036388;28;19925;-79
2023/01/02 10:32:57;;;;;;;;;;;9.40;99.90;;;;;;5047686;28;19912;-79
2023/01/02 10:35:29;;;;;;;;;;;9.40;99.90;;;;;;5031733;28;19917;-81
2023/01/02 10:37:55;;;;;;;;;;;9.60;99.90;;;;;;5033921;28;20355;-79
2023/01/02 10:40:21;;;;;;;;;;;9.60;99.90;;;;;;5031552;28;19943;-79
2023/01/02 10:42:48;;;;;;;;;;;9.70;99.90;;;;;;5027996;28;19952;-79
2023/01/02 10:45:15;;;;;;;;;;;8.20;99.90;;;;;;5026826;28;19963;-79
2023/01/02 10:47:40;;;;;;;;;;;9.80;99.90;;;;;;5025918;28;19980;-79
2023/01/02 10:50:25;;;;;;;;;;;9.90;99.90;;;;;;5024633;28;20005;-79
2023/01/02 10:52:52;;;;;;;;;;;10.00;99.90;;;;;;5025314;28;20039;-78
2023/01/02 10:55:36;;;;;;;;;;;10.10;99.90;;;;;;5024738;28;19905;-76
2023/01/02 10:58:22;;;;;;;;;;;10.20;99.90;;;;;;5039997;28;19944;-79
2023/01/02 11:00:48;;;;;;;;;;;10.30;99.90;;;;;;5004440;28;19927;-79
2023/01/02 11:03:16;;;;;;;;;;;10.50;99.90;;;;;;5021389;28;19909;-79
2023/01/02 11:05:44;;;;;;;;;;;10.50;99.90;;;;;;5022256;28;20015;-79
2023/01/02 11:08:20;;;;;;;;;;;11.00;99.90;;;;;;5004238;28;19912;-78
2023/01/02 11:10:46;;;;;;;;;;;10.70;99.90;;;;;;5021299;28;19909;-80
2023/01/02 11:13:21;;;;;;;;;;;9.00;99.90;;;;;;5021914;28;19905;-79
2023/01/02 11:15:51;;;;;;;;;;;10.80;99.90;;;;;;5023238;28;20661;-78
2023/01/02 11:18:25;;;;;;;;;;;10.90;99.90;;;;;;5003024;28;19925;-79
2023/01/02 11:20:52;;;;;;;;;;;10.90;99.90;;;;;;5005220;28;19931;-79
2023/01/02 11:23:21;;;;;;;;;;;11.20;99.90;;;;;;5004802;28;19952;-78
2023/01/02 11:25:46;;;;;;;;;;;11.50;99.90;;;;;;5020131;28;20368;-79
2023/01/02 11:28:17;;;;;;;;;;;11.40;99.90;;;;;;5018529;28;19909;-80
2023/01/02 11:30:45;;;;;;;;;;;11.70;99.90;;;;;;5000957;28;19919;-80
2023/01/02 11:33:14;;;;;;;;;;;11.60;99.90;;;;;;5017007;28;19909;-77
2023/01/02 11:35:55;;;;;;;;;;;11.80;99.90;;;;;;5017249;28;20014;-82
2023/01/02 11:38:41;;;;;;;;;;;12.00;99.90;;;;;;5011413;28;19913;-80
2023/01/02 11:41:18;;;;;;;;;;;12.00;99.90;;;;;;5018781;28;20159;-79
2023/01/02 11:43:48;;;;;;;;;;;12.20;99.90;;;;;;5019641;28;19975;-79
2023/01/02 11:46:22;;;;;;;;;;;12.20;99.90;;;;;;5019864;28;19940;-81
2023/01/02 11:48:50;;;;;;;;;;;12.30;99.90;;;;;;4996762;28;19916;-79
2023/01/02 11:51:17;;;;;;;;;;;12.50;99.90;;;;;;4996670;28;20001;-79
2023/01/02 11:53:46;;;;;;;;;;;12.60;99.90;;;;;;4996657;28;20380;-78
2023/01/02 11:56:16;;;;;;;;;;;12.80;99.90;;;;;;4979952;28;19909;-77
2023/01/02 11:58:42;;;;;;;;;;;13.00;99.90;;;;;;4996556;28;20527;-77
2023/01/02 12:01:11;;;;;;;;;;;13.10;99.90;;;;;;4995839;28;19913;-79
2023/01/02 12:03:37;;;;;;;;;;;13.20;99.90;;;;;;4995728;28;20532;-77
2023/01/02 12:06:03;;;;;;;;;;;13.30;99.90;;;;;;4996398;28;20016;-79
2023/01/02 12:08:47;;;;;;;;;;;13.30;99.90;;;;;;4996091;28;20157;-74
2023/01/02 12:11:13;;;;;;;;;;;13.40;99.90;;;;;;4996118;28;20005;-83
2023/01/02 12:13:47;;;;;;;;;;;13.50;99.90;;;;;;4996173;28;19917;-76
2023/01/02 12:16:19;;;;;;;;;;;13.70;99.90;;;;;;4995654;28;19909;-76
2023/01/02 12:19:08;;;;;;;;;;;13.90;99.90;;;;;;5012201;28;19922;-78
2023/01/02 12:21:48;;;;;;;;;;;14.00;99.90;;;;;;5017898;28;19909;-81
2023/01/02 12:24:25;;;;;;;;;;;14.00;99.90;;;;;;5018445;28;19909;-76
2023/01/02 12:27:14;;;;;;;;;;;14.10;99.90;;;;;;5018592;28;19906;-76
2023/01/02 12:29:55;;;;;;;;;;;14.30;99.90;;;;;;5015190;28;19909;-77
2023/01/02 12:32:37;;;;;;;;;;;14.40;99.90;;;;;;5014948;28;19959;-80
2023/01/02 12:35:18;;;;;;;;;;;14.60;99.90;;;;;;5015454;28;19992;-76
2023/01/02 12:37:52;;;;;;;;;;;14.80;99.90;;;;;;5014996;28;19913;-76
2023/01/02 12:40:43;;;;;;;;;;;14.80;99.90;;;;;;5014823;28;19913;-80
2023/01/02 12:43:10;;;;;;;;;;;15.00;99.90;;;;;;4995420;28;19925;-78
2023/01/02 12:45:42;;;;;;;;;;;15.10;99.90;;;;;;4995508;28;20478;-77
2023/01/02 12:48:37;;;;;;;;;;;15.10;99.90;;;;;;4996916;28;19920;-75
2023/01/02 12:51:05;;;;;;;;;;;15.00;99.90;;;;;;4920193;29;19966;-76
2023/01/02 12:53:40;;;;;;;;;;;15.00;99.90;;;;;;4917805;29;19940;-83
2023/01/02 12:56:13;;;;;;;;;;;14.70;99.90;;;;;;4917385;29;19946;-79
2023/01/02 12:58:39;;;;;;;;;;;14.60;99.90;;;;;;4901381;29;19915;-80
2023/01/02 13:01:23;;;;;;;;;;;14.50;99.90;;;;;;4917357;29;19918;-77
2023/01/02 13:03:51;;;;;;;;;;;14.30;99.90;;;;;;4917749;29;20161;-75
2023/01/02 13:06:35;;;;;;;;;;;14.20;99.90;;;;;;4906124;29;19915;-80
2023/01/02 13:09:11;;;;;;;;;;;14.00;99.90;;;;;;4879849;29;19920;-80
2023/01/02 13:11:44;;;;;;;;;;;13.90;99.90;;;;;;4883106;29;20007;-76
2023/01/02 13:14:14;;;;;;;;;;;13.70;99.90;;;;;;4882788;29;19919;-80
2023/01/02 13:16:40;;;;;;;;;;;13.60;99.90;;;;;;4882344;29;19994;-81
2023/01/02 13:19:06;;;;;;;;;;;12.60;99.90;;;;;;4903353;29;19975;-84
2023/01/02 13:21:34;;;;;;;;;;;13.40;99.90;;;;;;4919440;29;19907;-77
2023/01/02 13:24:00;;;;;;;;;;;13.30;99.90;;;;;;4919064;29;19957;-79
2023/01/02 13:26:28;;;;;;;;;;;13.30;99.90;;;;;;4942763;28;20586;-79
2023/01/02 13:28:53;;;;;;;;;;;13.20;99.90;;;;;;5038678;28;19916;-78
2023/01/02 13:31:19;;;;;;;;;;;13.10;99.90;;;;;;5053722;28;19909;-78
2023/01/02 13:33:46;;;;;;;;;;;13.10;99.90;;;;;;5038262;28;19921;-80
2023/01/02 13:36:12;;;;;;;;;;;13.10;99.90;;;;;;5038865;28;19956;-85
2023/01/02 13:38:38;;;;;;;;;;;13.10;99.90;;;;;;5037858;28;19952;-79
2023/01/02 13:41:03;;;;;;;;;;;12.30;99.90;;;;;;5053275;28;19908;-79
2023/01/02 13:43:30;;;;;;;;;;;13.10;99.90;;;;;;5038170;28;19928;-79
2023/01/02 13:45:57;;;;;;;;;;;13.10;99.90;;;;;;5037864;28;19996;-79
2023/01/02 13:48:30;;;;;;;;;;;13.10;99.90;;;;;;5037620;28;19912;-81
2023/01/02 13:51:02;;;;;;;;;;;13.10;99.90;;;;;;5037312;28;19961;-82
2023/01/02 13:53:40;;;;;;;;;;;13.10;99.90;;;;;;5052537;28;19909;-77
2023/01/02 13:56:07;;;;;;;;;;;13.10;99.90;;;;;;5037296;28;19955;-76
2023/01/02 13:58:52;;;;;;;;;;;13.00;99.90;;;;;;5037575;28;19913;-77
2023/01/02 14:01:17;;;;;;;;;;;13.00;99.90;;;;;;5041168;28;19944;-79
2023/01/02 14:03:43;;;;;;;;;;;13.00;99.90;;;;;;5041227;28;19983;-78
2023/01/02 14:06:27;;;;;;;;;;;12.90;99.90;;;;;;5041799;28;19913;-77
2023/01/02 14:09:01;;;;;;;;;;;13.00;99.90;;;;;;5041430;28;20338;-77
2023/01/02 14:11:30;;;;;;;;;;;13.00;99.90;;;;;;5041565;28;19929;-80
2023/01/02 14:13:56;;;;;;;;;;;12.00;99.90;;;;;;5041315;28;20525;-79
2023/01/02 14:16:22;;;;;;;;;;;13.00;99.90;;;;;;5040547;28;19912;-75
2023/01/02 14:19:01;;;;;;;;;;;12.90;99.90;;;;;;5055763;28;20489;-76
2023/01/02 14:21:38;;;;;;;;;;;13.00;99.90;;;;;;5040844;28;19940;-76
2023/01/02 14:24:04;;;;;;;;;;;13.10;99.90;;;;;;5041269;28;19905;-78
2023/01/02 14:26:32;;;;;;;;;;;13.10;99.90;;;;;;5056321;28;19951;-77
2023/01/02 14:28:59;;;;;;;;;;;13.10;99.90;;;;;;5040928;28;19909;-81
2023/01/02 14:31:32;;;;;;;;;;;13.00;99.90;;;;;;5022527;28;19916;-76
2023/01/02 14:33:58;;;;;;;;;;;13.00;99.90;;;;;;5040468;28;19919;-77
2023/01/02 14:36:44;;;;;;;;;;;12.90;99.90;;;;;;5040482;28;19940;-77
2023/01/02 14:39:16;;;;;;;;;;;12.90;99.90;;;;;;5022839;28;19917;-78
2023/01/02 14:44:26;;;;;;;;;;;12.60;99.90;;;;;;5040773;28;19969;-80
2023/01/02 14:46:51;;;;;;;;;;;12.50;99.90;;;;;;5040376;28;20004;-77
2023/01/02 14:49:20;;;;;;;;;;;12.50;99.90;;;;;;5040229;28;20059;-77